createdAt,value
2022-12-03T05:31:00.419Z,52.90
2022-12-03T05:32:00.186Z,48.70
2022-12-03T05:33:00.172Z,54.70
2022-12-03T05:34:00.173Z,54.50
2022-12-03T05:35:00.163Z,49.60
2022-12-03T05:36:00.141Z,49.80
2022-12-03T05:37:00.123Z,52.40
2022-12-03T05:38:00.111Z,53.40
2022-12-03T05:39:00.117Z,55.90
2022-12-03T05:40:00.142Z,51.00
2022-12-03T05:41:00.079Z,57.30
2022-12-03T05:42:00.077Z,54.30
2022-12-03T05:43:00.041Z,56.50
2022-12-03T05:45:08.920Z,52.10
2022-12-03T05:46:08.913Z,55.80
2022-12-03T05:47:08.864Z,54.70
2022-12-03T05:48:08.855Z,53.70
2022-12-03T05:49:08.873Z,58.60
2022-12-03T05:50:08.823Z,55.30
2022-12-03T05:51:08.816Z,48.90
2022-12-03T05:52:08.793Z,47.70
2022-12-03T05:53:08.794Z,48.30
2022-12-03T05:54:08.783Z,51.90
2022-12-03T05:55:08.795Z,44.70
2022-12-03T05:56:08.743Z,47.30
2022-12-03T05:57:08.733Z,50.30
2022-12-03T05:58:08.723Z,49.90
2022-12-03T05:59:08.738Z,47.80
2022-12-03T06:00:08.712Z,47.00
2022-12-03T06:01:08.704Z,50.50
2022-12-03T06:02:08.735Z,44.50
2022-12-03T06:03:08.774Z,53.00
2022-12-03T06:04:08.766Z,47.60
2022-12-03T06:05:08.630Z,49.10
2022-12-03T06:06:08.621Z,45.70
2022-12-03T06:07:13.728Z,44.00
2022-12-03T06:08:09.625Z,45.10
2022-12-03T06:09:08.607Z,46.10
2022-12-03T06:10:08.560Z,45.50
2022-12-03T06:11:08.560Z,44.00
2022-12-03T06:12:08.539Z,41.50
2022-12-03T06:13:08.530Z,43.40
2022-12-03T06:14:08.552Z,48.10
2022-12-03T06:15:08.506Z,43.10
2022-12-03T06:16:08.532Z,46.90
2022-12-03T06:17:08.520Z,43.40
2022-12-03T06:18:08.467Z,47.80
2022-12-03T06:19:08.468Z,52.50
2022-12-03T06:20:08.457Z,45.70
2022-12-03T06:21:08.428Z,50.30
2022-12-03T06:22:08.417Z,47.40
2022-12-03T06:23:08.406Z,47.00
2022-12-03T06:24:08.408Z,45.70
2022-12-03T06:25:08.376Z,45.50
2022-12-03T06:26:08.360Z,41.60
2022-12-03T06:27:08.385Z,45.80
2022-12-03T06:28:08.335Z,48.70
2022-12-03T06:29:08.352Z,40.80
2022-12-03T06:30:08.320Z,46.50
2022-12-03T06:31:08.353Z,51.40
2022-12-03T06:32:08.274Z,46.60
2022-12-03T06:33:08.275Z,47.10
2022-12-03T06:34:08.264Z,41.50
2022-12-03T06:35:08.294Z,43.00
2022-12-03T06:36:08.233Z,44.20
2022-12-03T06:37:08.263Z,44.40
2022-12-03T06:38:08.223Z,46.80
2022-12-03T06:39:08.205Z,41.80
2022-12-03T06:40:08.203Z,45.90
2022-12-03T06:41:08.172Z,45.80
2022-12-03T06:42:08.163Z,41.60
2022-12-03T06:43:08.142Z,41.70
2022-12-03T06:44:08.132Z,42.50
2022-12-03T06:45:08.118Z,47.60
2022-12-03T06:46:08.178Z,43.10
2022-12-03T06:47:08.102Z,41.90
2022-12-03T06:48:08.071Z,41.60
2022-12-03T06:49:08.080Z,44.50
2022-12-03T06:50:08.047Z,42.60
2022-12-03T06:51:08.039Z,45.20
2022-12-03T06:52:08.023Z,44.10
2022-12-03T06:53:08.011Z,41.60
2022-12-03T06:54:08.001Z,45.40
2022-12-03T06:55:07.996Z,47.30
2022-12-03T06:56:07.990Z,45.40
2022-12-03T06:57:07.968Z,45.10
2022-12-03T06:58:07.997Z,43.70
2022-12-03T06:59:07.960Z,45.30
2022-12-03T07:00:07.943Z,43.70
2022-12-03T07:01:07.908Z,47.00
2022-12-03T07:02:07.934Z,47.10
2022-12-03T07:03:07.948Z,46.70
2022-12-03T07:04:07.870Z,45.60
2022-12-03T07:05:07.868Z,45.30
2022-12-03T07:06:07.837Z,51.90
2022-12-03T07:07:07.837Z,53.60
2022-12-03T07:08:07.883Z,47.50
2022-12-03T07:09:07.806Z,49.30
2022-12-03T07:10:07.796Z,49.50
2022-12-03T07:11:07.788Z,49.30
2022-12-03T07:12:07.767Z,46.80
2022-12-03T07:13:07.755Z,47.80
2022-12-03T07:14:07.746Z,46.30
2022-12-03T07:15:07.760Z,47.00
2022-12-03T07:16:07.758Z,46.50
2022-12-03T07:17:07.703Z,48.50
2022-12-03T07:18:07.714Z,49.90
2022-12-03T07:19:07.676Z,48.50
2022-12-03T07:20:07.665Z,48.00
2022-12-03T07:21:07.654Z,47.20
2022-12-03T07:22:07.634Z,52.90
2022-12-03T07:23:07.641Z,49.30
2022-12-03T07:24:07.633Z,48.70
2022-12-03T07:25:07.612Z,47.10
2022-12-03T07:26:07.591Z,47.60
2022-12-03T07:27:07.571Z,45.20
2022-12-03T07:28:07.622Z,49.40
2022-12-03T07:29:07.543Z,47.50
2022-12-03T07:30:07.544Z,48.60
2022-12-03T07:31:07.572Z,50.80
2022-12-03T07:32:07.502Z,53.10
2022-12-03T07:33:07.501Z,53.00
2022-12-03T07:34:07.470Z,49.90
2022-12-03T07:35:07.490Z,51.30
2022-12-03T07:36:07.461Z,48.10
2022-12-03T07:37:07.440Z,49.20
2022-12-03T07:38:07.434Z,46.90
2022-12-03T07:39:07.423Z,47.00
2022-12-03T07:40:07.409Z,51.20
2022-12-03T07:41:07.394Z,51.60
2022-12-03T07:42:07.377Z,51.40
2022-12-03T07:43:07.370Z,53.50
2022-12-03T07:44:12.527Z,47.30
2022-12-03T07:45:08.408Z,54.70
2022-12-03T07:46:07.329Z,48.40
2022-12-03T07:47:07.408Z,48.60
2022-12-03T07:48:07.299Z,53.00
2022-12-03T07:49:07.309Z,48.80
2022-12-03T07:50:07.317Z,46.00
2022-12-03T07:51:08.177Z,48.50
2022-12-03T07:52:07.248Z,55.00
2022-12-03T07:53:07.248Z,49.80
2022-12-03T07:54:07.230Z,48.60
2022-12-03T07:55:07.238Z,50.70
2022-12-03T07:56:07.200Z,54.00
2022-12-03T07:57:07.184Z,54.60
2022-12-03T07:58:07.165Z,53.60
2022-12-03T07:59:07.165Z,51.10
2022-12-03T08:00:07.160Z,48.90
2022-12-03T08:01:07.213Z,48.80
2022-12-03T08:02:07.169Z,53.20
2022-12-03T08:03:07.126Z,46.20
2022-12-03T08:04:07.094Z,51.40
2022-12-03T08:05:07.104Z,49.50
2022-12-03T08:06:07.066Z,48.10
2022-12-03T08:07:07.055Z,43.90
2022-12-03T08:08:07.077Z,46.10
2022-12-03T08:09:07.040Z,46.70
2022-12-03T08:10:07.024Z,49.00
2022-12-03T08:11:07.007Z,43.50
2022-12-03T08:12:07.010Z,47.20
2022-12-03T08:13:06.998Z,44.60
2022-12-03T08:14:06.964Z,46.40
2022-12-03T08:15:06.967Z,42.20
2022-12-03T08:16:06.971Z,48.60
2022-12-03T08:17:06.925Z,45.20
2022-12-03T08:18:06.917Z,41.80
2022-12-03T08:19:06.901Z,44.40
2022-12-03T08:20:06.901Z,39.90
2022-12-03T08:21:06.870Z,39.30
2022-12-03T08:22:06.886Z,39.20
2022-12-03T08:23:06.883Z,39.60
2022-12-03T08:24:06.831Z,42.40
2022-12-03T08:25:06.841Z,40.20
2022-12-03T08:26:06.808Z,42.70
2022-12-03T08:27:06.799Z,42.70
2022-12-03T08:28:06.782Z,39.30
2022-12-03T08:29:06.769Z,43.20
2022-12-03T08:30:06.756Z,39.30
2022-12-03T08:31:06.763Z,37.50
2022-12-03T08:32:06.767Z,40.80
2022-12-03T08:33:06.718Z,42.10
2022-12-03T08:34:06.708Z,43.00
2022-12-03T08:35:06.697Z,42.70
2022-12-03T08:36:06.697Z,46.70
2022-12-03T08:37:06.668Z,37.60
2022-12-03T08:38:06.654Z,40.20
2022-12-03T08:39:06.657Z,43.20
2022-12-03T08:40:06.632Z,47.60
2022-12-03T08:41:06.626Z,47.30
2022-12-03T08:42:10.702Z,47.80
2022-12-03T08:43:07.596Z,47.70
2022-12-03T08:44:06.585Z,48.50
2022-12-03T08:45:06.566Z,47.40
2022-12-03T08:46:06.649Z,48.40
2022-12-03T08:47:06.544Z,59.40
2022-12-03T08:48:06.555Z,46.30
2022-12-03T08:49:06.515Z,47.90
2022-12-03T08:50:06.501Z,49.50
2022-12-03T08:51:06.543Z,48.90
2022-12-03T08:52:06.474Z,51.10
2022-12-03T08:53:06.463Z,50.30
2022-12-03T08:54:06.444Z,55.10
2022-12-03T08:55:06.443Z,46.60
2022-12-03T08:56:06.444Z,46.00
2022-12-03T08:57:06.413Z,46.00
2022-12-03T08:58:06.412Z,49.70
2022-12-03T08:59:06.394Z,50.40
2022-12-03T09:00:06.381Z,43.50
2022-12-03T09:01:06.454Z,48.00
2022-12-03T09:02:06.342Z,51.20
2022-12-03T09:03:06.331Z,49.10
2022-12-03T09:04:06.395Z,48.30
2022-12-03T09:05:06.301Z,50.90
2022-12-03T09:06:06.317Z,50.90
2022-12-03T09:07:06.301Z,47.00
2022-12-03T09:08:06.354Z,48.60
2022-12-03T09:09:06.977Z,48.50
2022-12-03T09:10:06.258Z,51.80
2022-12-03T09:11:06.229Z,47.60
2022-12-03T09:12:06.219Z,45.80
2022-12-03T09:13:06.206Z,48.40
2022-12-03T09:14:06.188Z,50.10
2022-12-03T09:15:06.189Z,49.50
2022-12-03T09:16:06.250Z,53.50
2022-12-03T09:17:06.200Z,46.00
2022-12-03T09:18:06.146Z,49.10
2022-12-03T09:19:06.120Z,49.20
2022-12-03T09:20:06.158Z,44.60
2022-12-03T09:21:06.105Z,49.60
2022-12-03T09:22:06.105Z,47.60
2022-12-03T09:23:06.074Z,49.40
2022-12-03T09:24:06.056Z,45.10
2022-12-03T09:25:06.050Z,49.30
2022-12-03T09:26:06.035Z,50.80
2022-12-03T09:27:06.035Z,46.40
2022-12-03T09:28:06.008Z,45.80
2022-12-03T09:29:11.734Z,51.10
2022-12-03T09:30:07.012Z,48.00
2022-12-03T09:31:05.965Z,44.40
2022-12-03T09:32:06.049Z,44.90
2022-12-03T09:33:05.945Z,48.90
2022-12-03T09:34:05.954Z,46.50
2022-12-03T09:35:05.914Z,47.70
2022-12-03T09:36:05.904Z,49.00
2022-12-03T09:37:05.916Z,46.70
2022-12-03T09:38:05.887Z,51.80
2022-12-03T09:39:05.864Z,49.00
2022-12-03T09:40:05.862Z,48.40
2022-12-03T09:41:05.834Z,44.40
2022-12-03T09:42:05.863Z,51.60
2022-12-03T09:43:05.813Z,52.40
2022-12-03T09:44:06.495Z,45.80
2022-12-03T09:45:05.793Z,47.30
2022-12-03T09:46:05.861Z,54.60
2022-12-03T09:47:05.778Z,48.60
2022-12-03T09:48:05.751Z,49.50
2022-12-03T09:49:09.467Z,47.50
2022-12-03T09:50:06.720Z,48.40
2022-12-03T09:51:05.729Z,52.70
2022-12-03T09:52:05.729Z,53.60
2022-12-03T09:53:05.686Z,56.70
2022-12-03T09:54:05.660Z,48.50
2022-12-03T09:55:05.659Z,53.80
2022-12-03T09:56:05.639Z,54.00
2022-12-03T09:57:05.689Z,53.50
2022-12-03T09:58:05.650Z,50.20
2022-12-03T09:59:05.611Z,48.50
2022-12-03T10:00:05.618Z,48.90
2022-12-03T10:01:05.637Z,48.80
2022-12-03T10:02:05.630Z,53.50
2022-12-03T10:03:05.558Z,49.40
2022-12-03T10:04:05.576Z,50.00
2022-12-03T10:05:05.608Z,53.00
2022-12-03T10:06:05.525Z,57.20
2022-12-03T10:07:05.536Z,51.80
2022-12-03T10:08:05.574Z,54.90
2022-12-03T10:09:05.497Z,47.50
2022-12-03T10:10:05.476Z,48.70
2022-12-03T10:11:05.486Z,52.00
2022-12-03T10:12:05.448Z,52.10
2022-12-03T10:13:05.427Z,51.40
2022-12-03T10:14:05.406Z,51.50
2022-12-03T10:15:05.399Z,51.20
2022-12-03T10:16:05.418Z,52.90
2022-12-03T10:17:05.493Z,54.10
2022-12-03T10:18:05.384Z,53.50
2022-12-03T10:19:05.395Z,54.50
2022-12-03T10:20:05.333Z,52.80
2022-12-03T10:21:05.324Z,56.40
2022-12-03T10:22:05.373Z,47.40
2022-12-03T10:23:05.304Z,53.80
2022-12-03T10:24:05.283Z,50.70
2022-12-03T10:25:05.346Z,56.80
2022-12-03T10:26:05.254Z,53.40
2022-12-03T10:27:05.286Z,53.30
2022-12-03T10:28:05.284Z,56.60
2022-12-03T10:29:05.278Z,56.80
2022-12-03T10:30:05.209Z,52.10
2022-12-03T10:31:05.251Z,55.60
2022-12-03T10:32:05.225Z,50.60
2022-12-03T10:33:05.182Z,51.90
2022-12-03T10:34:05.152Z,55.20
2022-12-03T10:35:05.142Z,53.50
2022-12-03T10:36:05.120Z,50.80
2022-12-03T10:37:05.131Z,53.60
2022-12-03T10:38:05.113Z,46.50
2022-12-03T10:39:05.094Z,51.50
2022-12-03T10:40:05.093Z,54.70
2022-12-03T10:41:05.060Z,52.10
2022-12-03T10:42:05.141Z,53.30
2022-12-03T10:43:05.088Z,56.20
2022-12-03T10:44:05.065Z,51.90
2022-12-03T10:45:05.046Z,53.90
2022-12-03T10:46:05.126Z,51.20
2022-12-03T10:47:05.232Z,49.80
2022-12-03T10:48:04.979Z,55.50
2022-12-03T10:49:04.967Z,51.50
2022-12-03T10:50:04.955Z,56.00
2022-12-03T10:51:04.937Z,50.60
2022-12-03T10:52:04.948Z,49.40
2022-12-03T10:53:04.917Z,51.80
2022-12-03T10:54:04.896Z,52.10
2022-12-03T10:55:04.910Z,47.80
2022-12-03T10:56:04.870Z,48.60
2022-12-03T10:57:04.856Z,49.00
2022-12-03T10:58:04.856Z,52.30
2022-12-03T10:59:04.824Z,48.80
2022-12-03T11:00:04.826Z,50.80
2022-12-03T11:01:04.847Z,51.90
2022-12-03T11:02:04.842Z,50.90
2022-12-03T11:03:04.862Z,51.80
2022-12-03T11:04:04.869Z,52.20
2022-12-03T11:05:04.798Z,51.70
2022-12-03T11:06:04.733Z,53.10
2022-12-03T11:07:04.725Z,51.30
2022-12-03T11:08:04.778Z,51.90
2022-12-03T11:09:08.795Z,49.20
2022-12-03T11:10:04.694Z,48.70
2022-12-03T11:11:04.674Z,53.30
2022-12-03T11:12:04.660Z,48.50
2022-12-03T11:13:04.675Z,50.40
2022-12-03T11:14:04.641Z,51.80
2022-12-03T11:15:04.625Z,51.10
2022-12-03T11:16:04.672Z,50.00
2022-12-03T11:17:04.601Z,51.90
2022-12-03T11:18:04.610Z,48.10
2022-12-03T11:19:04.582Z,50.40
2022-12-03T11:20:04.559Z,52.20
2022-12-03T11:21:04.554Z,46.80
2022-12-03T11:22:04.549Z,50.90
2022-12-03T11:23:04.550Z,51.70
2022-12-03T11:24:04.501Z,47.70
2022-12-03T11:25:04.489Z,45.40
2022-12-03T11:26:04.471Z,46.60
2022-12-03T11:27:04.473Z,53.90
2022-12-03T11:28:04.465Z,53.00
2022-12-03T11:29:04.447Z,50.20
2022-12-03T11:30:04.429Z,52.20
2022-12-03T11:31:04.472Z,50.30
2022-12-03T11:32:04.403Z,48.70
2022-12-03T11:33:04.401Z,50.00
2022-12-03T11:34:04.369Z,51.50
2022-12-03T11:35:04.366Z,47.80
2022-12-03T11:36:04.385Z,50.80
2022-12-03T11:37:04.356Z,49.20
2022-12-03T11:38:04.347Z,54.70
2022-12-03T11:39:04.325Z,58.50
2022-12-03T11:40:04.299Z,54.10
2022-12-03T11:41:04.285Z,49.40
2022-12-03T11:42:04.273Z,46.10
2022-12-03T11:43:04.255Z,48.70
2022-12-03T11:44:04.268Z,50.60
2022-12-03T11:45:11.311Z,49.80
2022-12-03T11:46:04.610Z,51.30
2022-12-03T11:47:04.243Z,45.40
2022-12-03T11:48:04.191Z,47.80
2022-12-03T11:49:04.191Z,51.70
2022-12-03T11:50:04.168Z,50.10
2022-12-03T11:51:04.193Z,49.70
2022-12-03T11:52:04.141Z,46.60
2022-12-03T11:53:04.129Z,46.90
2022-12-03T11:54:04.122Z,45.50
2022-12-03T11:55:04.190Z,47.00
2022-12-03T11:56:04.706Z,46.70
2022-12-03T11:57:04.078Z,43.50
2022-12-03T11:58:04.057Z,47.30
2022-12-03T11:59:04.060Z,47.00
2022-12-03T12:00:04.030Z,44.10
2022-12-03T12:01:04.026Z,47.00
2022-12-03T12:02:04.029Z,44.10
2022-12-03T12:03:04.038Z,48.30
2022-12-03T12:04:04.048Z,40.80
2022-12-03T12:05:03.970Z,46.20
2022-12-03T12:06:03.961Z,46.80
2022-12-03T12:07:03.946Z,46.30
2022-12-03T12:08:04.022Z,43.10
2022-12-03T12:09:03.936Z,38.70
2022-12-03T12:10:03.906Z,46.90
2022-12-03T12:11:03.895Z,44.30
2022-12-03T12:12:03.887Z,47.50
2022-12-03T12:13:03.866Z,43.50
2022-12-03T12:14:03.865Z,38.00
2022-12-03T12:15:03.844Z,43.50
2022-12-03T12:16:03.901Z,47.60
2022-12-03T12:17:03.815Z,45.10
2022-12-03T12:18:03.804Z,42.30
2022-12-03T12:19:03.804Z,42.80
2022-12-03T12:20:03.774Z,46.60
2022-12-03T12:21:03.774Z,48.40
2022-12-03T12:22:03.763Z,46.50
2022-12-03T12:23:03.734Z,43.90
2022-12-03T12:24:03.739Z,43.10
2022-12-03T12:25:03.713Z,49.00
2022-12-03T12:26:03.693Z,47.00
2022-12-03T12:27:03.693Z,46.00
2022-12-03T12:28:03.675Z,39.00
2022-12-03T12:29:03.672Z,46.00
2022-12-03T12:30:03.651Z,48.80
2022-12-03T12:31:03.655Z,42.30
2022-12-03T12:32:03.664Z,42.30
2022-12-03T12:33:03.610Z,43.40
2022-12-03T12:34:03.609Z,48.30
2022-12-03T12:35:03.581Z,50.10
2022-12-03T12:36:03.561Z,41.80
2022-12-03T12:37:03.561Z,46.50
2022-12-03T12:38:03.541Z,47.10
2022-12-03T12:39:03.541Z,45.90
2022-12-03T12:40:03.517Z,44.40
2022-12-03T12:41:03.508Z,45.10
2022-12-03T12:42:03.489Z,47.80
2022-12-03T12:43:11.839Z,44.90
2022-12-03T12:44:04.478Z,44.70
2022-12-03T12:45:03.448Z,47.00
2022-12-03T12:46:25.017Z,46.90
2022-12-03T12:47:04.504Z,41.00
2022-12-03T12:48:03.417Z,50.50
2022-12-03T12:49:03.421Z,46.90
2022-12-03T12:50:03.397Z,54.10
2022-12-03T12:51:03.378Z,46.30
2022-12-03T12:52:03.357Z,50.40
2022-12-03T12:53:03.363Z,47.10
2022-12-03T12:54:03.336Z,46.60
2022-12-03T12:55:05.297Z,47.40
2022-12-03T12:56:03.305Z,51.00
2022-12-03T12:57:03.295Z,56.90
2022-12-03T12:58:03.286Z,49.70
2022-12-03T12:59:03.293Z,49.60
2022-12-03T13:00:03.295Z,55.10
2022-12-03T13:01:03.295Z,46.40
2022-12-03T13:02:08.519Z,51.80
2022-12-03T13:03:04.223Z,51.90
2022-12-03T13:04:03.204Z,52.90
2022-12-03T13:05:03.224Z,53.90
2022-12-03T13:06:03.184Z,54.90
2022-12-03T13:07:03.183Z,50.00
2022-12-03T13:08:08.787Z,51.50
2022-12-03T13:09:04.142Z,52.80
2022-12-03T13:10:03.143Z,53.30
2022-12-03T13:11:03.112Z,53.50
2022-12-03T13:12:03.103Z,52.60
2022-12-03T13:13:03.101Z,49.40
2022-12-03T13:14:03.071Z,52.00
2022-12-03T13:15:03.071Z,51.10
2022-12-03T13:16:03.085Z,53.80
2022-12-03T13:17:03.041Z,53.50
2022-12-03T13:18:03.022Z,56.50
2022-12-03T13:19:03.040Z,50.40
2022-12-03T13:20:07.519Z,52.10
2022-12-03T13:21:03.990Z,52.10
2022-12-03T13:22:02.970Z,51.30
2022-12-03T13:23:02.969Z,53.40
2022-12-03T13:24:02.941Z,48.30
2022-12-03T13:25:02.994Z,53.70
2022-12-03T13:26:14.134Z,55.60
2022-12-03T13:27:03.908Z,49.90
2022-12-03T13:28:02.912Z,49.60
2022-12-03T13:29:02.878Z,51.10
2022-12-03T13:30:02.882Z,53.10
2022-12-03T13:31:02.919Z,53.80
2022-12-03T13:32:02.926Z,54.60
2022-12-03T13:33:02.840Z,53.70
2022-12-03T13:34:02.807Z,53.30
2022-12-03T13:35:02.819Z,53.80
2022-12-03T13:36:02.788Z,53.20
2022-12-03T13:37:02.778Z,57.10
2022-12-03T13:38:02.836Z,54.20
2022-12-03T13:39:02.754Z,50.20
2022-12-03T13:40:02.756Z,49.70
2022-12-03T13:41:02.731Z,52.70
2022-12-03T13:42:02.706Z,52.50
2022-12-03T13:43:02.705Z,50.60
2022-12-03T13:44:02.686Z,46.80
2022-12-03T13:45:02.685Z,48.90
2022-12-03T13:46:02.694Z,50.60
2022-12-03T13:47:02.645Z,52.40
2022-12-03T13:48:02.633Z,48.70
2022-12-03T13:49:02.633Z,56.20
2022-12-03T13:50:02.614Z,51.40
2022-12-03T13:51:02.611Z,56.30
2022-12-03T13:52:02.573Z,47.50
2022-12-03T13:53:02.573Z,51.80
2022-12-03T13:54:02.556Z,49.90
2022-12-03T13:55:02.571Z,48.70
2022-12-03T13:56:02.529Z,49.10
2022-12-03T13:57:02.522Z,53.70
2022-12-03T13:58:02.501Z,50.20
2022-12-03T13:59:02.491Z,47.50
2022-12-03T14:00:02.507Z,50.20
2022-12-03T14:01:02.498Z,47.40
2022-12-03T14:02:02.500Z,48.40
2022-12-03T14:03:02.444Z,47.70
2022-12-03T14:04:02.432Z,50.60
2022-12-03T14:05:02.419Z,49.50
2022-12-03T14:06:02.400Z,50.40
2022-12-03T14:07:02.390Z,47.60
2022-12-03T14:08:02.514Z,52.20
2022-12-03T14:09:02.370Z,53.50
2022-12-03T14:10:02.362Z,50.20
2022-12-03T14:11:02.328Z,50.10
2022-12-03T14:12:02.334Z,52.90
2022-12-03T14:13:02.309Z,48.40
2022-12-03T14:14:02.357Z,48.30
2022-12-03T14:15:02.301Z,51.90
2022-12-03T14:16:02.310Z,50.50
2022-12-03T14:17:02.326Z,55.50
2022-12-03T14:18:02.247Z,47.90
2022-12-03T14:19:02.270Z,53.70
2022-12-03T14:20:02.229Z,45.90
2022-12-03T14:21:02.216Z,50.10
2022-12-03T14:22:02.195Z,53.50
2022-12-03T14:23:02.175Z,50.20
2022-12-03T14:24:02.176Z,53.80
2022-12-03T14:25:02.157Z,54.20
2022-12-03T14:26:02.155Z,51.50
2022-12-03T14:27:02.123Z,53.30
2022-12-03T14:28:02.114Z,47.90
2022-12-03T14:29:07.180Z,48.60
2022-12-03T14:30:03.094Z,50.10
2022-12-03T14:31:02.083Z,50.90
2022-12-03T14:32:02.131Z,51.50
2022-12-03T14:33:02.053Z,51.70
2022-12-03T14:34:02.033Z,48.10
2022-12-03T14:35:08.176Z,54.00
2022-12-03T14:36:03.145Z,50.40
2022-12-03T14:37:01.994Z,49.40
2022-12-03T14:38:01.993Z,50.70
2022-12-03T14:39:01.980Z,54.10
2022-12-03T14:40:01.971Z,51.00
2022-12-03T14:41:01.952Z,49.60
2022-12-03T14:42:01.950Z,49.10
2022-12-03T14:43:01.923Z,54.80
2022-12-03T14:44:01.921Z,49.40
2022-12-03T14:45:01.892Z,53.20
2022-12-03T14:46:01.951Z,53.70
2022-12-03T14:47:01.900Z,52.60
2022-12-03T14:48:01.857Z,55.70
2022-12-03T14:49:01.849Z,51.10
2022-12-03T14:50:01.839Z,53.50
2022-12-03T14:51:01.827Z,54.80
2022-12-03T14:52:01.802Z,53.70
2022-12-03T14:53:01.789Z,51.40
2022-12-03T14:54:01.793Z,57.60
2022-12-03T14:55:01.758Z,59.80
2022-12-03T14:56:01.766Z,59.90
2022-12-03T14:57:01.740Z,56.00
2022-12-03T14:58:01.726Z,53.00
2022-12-03T14:59:01.717Z,52.70
2022-12-03T15:00:01.730Z,52.50
2022-12-03T15:01:01.743Z,60.10
2022-12-03T15:02:01.768Z,57.00
2022-12-03T15:03:01.699Z,56.60
2022-12-03T15:04:01.648Z,57.90
2022-12-03T15:05:01.635Z,54.70
2022-12-03T15:06:01.627Z,57.80
2022-12-03T15:07:01.606Z,56.40
2022-12-03T15:08:01.684Z,56.10
2022-12-03T15:09:01.585Z,56.50
2022-12-03T15:10:01.564Z,55.90
2022-12-03T15:11:01.665Z,54.10
2022-12-03T15:12:01.544Z,57.90
2022-12-03T15:13:01.535Z,56.40
2022-12-03T15:14:01.514Z,60.10
2022-12-03T15:15:01.514Z,61.00
2022-12-03T15:16:01.511Z,57.90
2022-12-03T15:17:01.611Z,54.40
2022-12-03T15:18:01.466Z,60.30
2022-12-03T15:19:01.463Z,59.10
2022-12-03T15:20:01.442Z,63.90
2022-12-03T15:21:01.444Z,56.60
2022-12-03T15:22:01.425Z,62.00
2022-12-03T15:23:01.411Z,58.30
2022-12-03T15:24:01.391Z,64.10
2022-12-03T15:25:01.379Z,59.70
2022-12-03T15:26:01.377Z,61.90
2022-12-03T15:27:01.353Z,62.00
2022-12-03T15:28:01.349Z,57.90
2022-12-03T15:29:01.322Z,65.00
2022-12-03T15:30:01.330Z,60.40
2022-12-03T15:31:01.600Z,54.50
2022-12-03T15:32:01.279Z,57.30
2022-12-03T15:33:01.279Z,62.60
2022-12-03T15:34:01.264Z,60.30
2022-12-03T15:35:01.261Z,63.20
2022-12-03T15:36:01.243Z,59.70
2022-12-03T15:37:01.229Z,62.00
2022-12-03T15:38:01.211Z,57.50
2022-12-03T15:39:01.207Z,60.40
2022-12-03T15:40:01.181Z,62.70
2022-12-03T15:41:01.188Z,56.50
2022-12-03T15:42:01.168Z,59.90
2022-12-03T15:43:01.147Z,64.40
2022-12-03T15:44:01.127Z,65.60
2022-12-03T15:45:01.127Z,63.30
2022-12-03T15:46:01.152Z,56.80
2022-12-03T15:47:01.128Z,66.90
2022-12-03T15:48:01.078Z,56.80
2022-12-03T15:49:01.077Z,64.40
2022-12-03T15:50:01.056Z,60.00
2022-12-03T15:51:01.044Z,63.90
2022-12-03T15:52:01.039Z,66.60
2022-12-03T15:53:01.025Z,66.30
2022-12-03T15:54:01.006Z,66.40
2022-12-03T15:55:01.006Z,61.90
2022-12-03T15:56:01.020Z,61.50
2022-12-03T15:57:00.988Z,65.50
2022-12-03T15:58:00.956Z,61.60
2022-12-03T15:59:00.957Z,61.70
2022-12-03T16:00:00.933Z,71.30
2022-12-03T16:01:01.165Z,64.80
2022-12-03T16:02:00.987Z,70.00
2022-12-03T16:03:00.970Z,62.50
2022-12-03T16:04:00.873Z,65.70
2022-12-03T16:05:00.871Z,62.40
2022-12-03T16:06:00.842Z,66.60
2022-12-03T16:07:00.852Z,69.70
2022-12-03T16:08:00.901Z,67.90
2022-12-03T16:09:00.817Z,65.90
2022-12-03T16:10:00.791Z,65.60
2022-12-03T16:11:00.780Z,61.40
2022-12-03T16:12:00.780Z,62.40
2022-12-03T16:13:00.761Z,68.70
2022-12-03T16:14:00.742Z,69.00
2022-12-03T16:15:00.732Z,65.00
2022-12-03T16:16:00.760Z,65.60
2022-12-03T16:17:00.720Z,63.60
2022-12-03T16:18:00.718Z,65.50
2022-12-03T16:19:00.682Z,67.00
2022-12-03T16:20:00.674Z,69.20
2022-12-03T16:21:00.658Z,73.90
2022-12-03T16:22:00.657Z,69.80
2022-12-03T16:23:00.637Z,73.40
2022-12-03T16:24:00.616Z,68.10
2022-12-03T16:25:00.608Z,66.40
2022-12-03T16:26:00.596Z,71.40
2022-12-03T16:27:00.588Z,74.20
2022-12-03T16:28:00.576Z,68.40
2022-12-03T16:29:00.558Z,77.20
2022-12-03T16:30:00.588Z,81.70
2022-12-03T16:31:00.637Z,82.90
2022-12-03T16:32:00.516Z,88.80
2022-12-03T16:33:00.631Z,74.90
2022-12-03T16:34:00.485Z,73.20
2022-12-03T16:35:00.476Z,73.40
2022-12-03T16:36:00.475Z,72.20
2022-12-03T16:37:00.455Z,67.40
2022-12-03T16:38:00.445Z,72.70
2022-12-03T16:39:00.426Z,66.80
2022-12-03T16:40:00.406Z,70.20
2022-12-03T16:41:00.415Z,68.00
2022-12-03T16:42:00.384Z,73.10
2022-12-03T16:43:00.417Z,69.70
2022-12-03T16:44:00.354Z,70.60
2022-12-03T16:45:00.345Z,69.30
2022-12-03T16:46:00.387Z,77.10
2022-12-03T16:47:00.325Z,71.40
2022-12-03T16:48:00.372Z,72.10
2022-12-03T16:49:00.293Z,73.00
2022-12-03T16:50:00.289Z,70.20
2022-12-03T16:51:00.272Z,70.20
2022-12-03T16:52:00.261Z,71.50
2022-12-03T16:53:00.251Z,73.60
2022-12-03T16:54:00.230Z,76.30
2022-12-03T16:55:00.220Z,74.60
2022-12-03T16:56:00.201Z,76.10
2022-12-03T16:57:00.191Z,72.10
2022-12-03T16:58:00.217Z,74.00
2022-12-03T16:59:00.169Z,71.40
2022-12-03T17:00:00.266Z,76.90
2022-12-03T17:01:00.139Z,70.90
2022-12-03T17:02:00.225Z,73.10
2022-12-03T17:03:00.207Z,72.30
2022-12-03T17:04:00.110Z,78.80
2022-12-03T17:05:00.102Z,74.30
2022-12-03T17:06:00.092Z,78.00
2022-12-03T17:07:00.076Z,70.50
2022-12-03T17:08:00.148Z,69.30
2022-12-03T17:09:00.048Z,69.60
2022-12-03T17:10:00.171Z,74.70
2022-12-03T17:11:00.047Z,69.00
2022-12-03T17:11:59.994Z,71.20
2022-12-03T17:13:15.291Z,82.40
2022-12-03T17:14:00.967Z,73.80
2022-12-03T17:14:59.966Z,78.20
2022-12-03T17:16:00.047Z,84.00
2022-12-03T17:16:59.938Z,65.70
2022-12-03T17:17:59.925Z,74.30
2022-12-03T17:18:59.934Z,69.20
2022-12-03T17:19:59.966Z,74.10
2022-12-03T17:20:59.883Z,72.80
2022-12-03T17:21:59.887Z,74.40
2022-12-03T17:22:59.874Z,72.90
2022-12-03T17:23:59.834Z,73.30
2022-12-03T17:24:59.832Z,75.00
2022-12-03T17:25:59.812Z,74.40
2022-12-03T17:26:59.816Z,73.70
2022-12-03T17:27:59.802Z,74.60
2022-12-03T17:28:59.784Z,77.80
2022-12-03T17:29:59.783Z,71.00
2022-12-03T17:30:59.823Z,75.60
2022-12-03T17:31:59.802Z,75.10
2022-12-03T17:32:59.741Z,74.40
2022-12-03T17:33:59.712Z,78.80
2022-12-03T17:34:59.712Z,77.50
2022-12-03T17:35:59.685Z,71.90
2022-12-03T17:36:59.680Z,73.70
2022-12-03T17:37:59.691Z,74.00
2022-12-03T17:38:59.651Z,74.00
2022-12-03T17:39:59.713Z,75.80
2022-12-03T17:40:59.620Z,78.20
2022-12-03T17:41:59.606Z,83.40
2022-12-03T17:42:59.660Z,70.70
2022-12-03T17:43:59.580Z,82.30
2022-12-03T17:45:06.628Z,76.90
2022-12-03T17:45:59.618Z,78.90
2022-12-03T17:46:59.603Z,79.20
2022-12-03T17:47:59.598Z,71.80
2022-12-03T17:48:59.539Z,72.50
2022-12-03T17:49:59.560Z,62.20
2022-12-03T17:50:59.505Z,74.60
2022-12-03T17:51:59.496Z,76.40
2022-12-03T17:52:59.478Z,76.50
2022-12-03T17:53:59.488Z,73.50
2022-12-03T17:55:11.201Z,74.20
2022-12-03T17:56:00.439Z,77.50
2022-12-03T17:56:59.426Z,67.90
2022-12-03T17:57:59.435Z,66.20
2022-12-03T17:58:59.419Z,73.20
2022-12-03T17:59:59.429Z,81.20
2022-12-03T18:01:02.690Z,72.00
2022-12-03T18:01:59.437Z,70.20
2022-12-03T18:02:59.355Z,72.30
2022-12-03T18:03:59.391Z,69.40
2022-12-03T18:04:59.354Z,74.40
2022-12-03T18:05:59.339Z,74.40
2022-12-03T18:07:02.370Z,69.60
2022-12-03T18:07:59.330Z,70.60
2022-12-03T18:08:59.274Z,72.30
2022-12-03T18:09:59.302Z,77.90
2022-12-03T18:10:59.323Z,70.80
2022-12-03T18:11:59.244Z,75.40
2022-12-03T18:13:02.006Z,77.80
2022-12-03T18:13:59.223Z,77.20
2022-12-03T18:14:59.203Z,69.80
2022-12-03T18:15:59.215Z,69.40
2022-12-03T18:16:59.160Z,72.50
2022-12-03T18:17:59.151Z,78.70
2022-12-03T18:19:05.878Z,77.00
2022-12-03T18:20:00.247Z,79.00
2022-12-03T18:20:59.231Z,69.90
2022-12-03T18:21:59.092Z,70.80
2022-12-03T18:22:59.080Z,75.00
2022-12-03T18:23:59.089Z,76.50